sensor_id;sensor_type;location;lat;lon;timestamp;temperature;humidity
24462;DHT22;12631;50.860;5.714;2023-01-01T00:00:57;15.90;1.00
24462;DHT22;12631;50.860;5.714;2023-01-01T00:03:24;15.90;1.00
24462;DHT22;12631;50.860;5.714;2023-01-01T00:05:51;15.80;1.00
24462;DHT22;12631;50.860;5.714;2023-01-01T00:08:19;15.80;1.00
24462;DHT22;12631;50.860;5.714;2023-01-01T00:10:47;15.80;1.00
24462;DHT22;12631;50.860;5.714;2023-01-01T00:13:13;15.70;1.00
24462;DHT22;12631;50.860;5.714;2023-01-01T00:15:41;15.70;1.00
24462;DHT22;12631;50.860;5.714;2023-01-01T00:18:08;15.60;1.00
24462;DHT22;12631;50.860;5.714;2023-01-01T00:20:35;15.50;1.00
24462;DHT22;12631;50.860;5.714;2023-01-01T00:23:03;15.50;1.00
24462;DHT22;12631;50.860;5.714;2023-01-01T00:25:30;15.50;1.00
24462;DHT22;12631;50.860;5.714;2023-01-01T00:27:58;15.50;1.00
24462;DHT22;12631;50.860;5.714;2023-01-01T00:30:25;15.60;1.00
24462;DHT22;12631;50.860;5.714;2023-01-01T00:32:53;15.70;1.00
24462;DHT22;12631;50.860;5.714;2023-01-01T00:35:20;15.60;1.00
24462;DHT22;12631;50.860;5.714;2023-01-01T00:37:47;15.60;1.00
24462;DHT22;12631;50.860;5.714;2023-01-01T00:40:14;15.60;1.00
24462;DHT22;12631;50.860;5.714;2023-01-01T00:42:43;15.60;1.00
24462;DHT22;12631;50.860;5.714;2023-01-01T00:45:12;15.60;1.00
24462;DHT22;12631;50.860;5.714;2023-01-01T00:47:39;15.60;1.00
24462;DHT22;12631;50.860;5.714;2023-01-01T00:50:07;15.60;1.00
24462;DHT22;12631;50.860;5.714;2023-01-01T00:52:34;15.70;1.00
24462;DHT22;12631;50.860;5.714;2023-01-01T00:55:01;15.60;1.00
24462;DHT22;12631;50.860;5.714;2023-01-01T00:57:28;15.50;1.00
24462;DHT22;12631;50.860;5.714;2023-01-01T00:59:55;15.50;1.00
24462;DHT22;12631;50.860;5.714;2023-01-01T01:02:24;15.50;1.00
24462;DHT22;12631;50.860;5.714;2023-01-01T01:04:51;15.50;1.00
24462;DHT22;12631;50.860;5.714;2023-01-01T01:07:18;15.70;1.00
24462;DHT22;12631;50.860;5.714;2023-01-01T01:09:46;15.60;1.00
24462;DHT22;12631;50.860;5.714;2023-01-01T01:12:13;15.50;1.00
24462;DHT22;12631;50.860;5.714;2023-01-01T01:14:40;15.40;1.00
24462;DHT22;12631;50.860;5.714;2023-01-01T01:17:07;15.50;1.00
24462;DHT22;12631;50.860;5.714;2023-01-01T01:19:36;15.50;1.00
24462;DHT22;12631;50.860;5.714;2023-01-01T01:22:03;15.50;1.00
24462;DHT22;12631;50.860;5.714;2023-01-01T01:24:31;15.50;1.00
24462;DHT22;12631;50.860;5.714;2023-01-01T01:26:58;15.60;1.00
24462;DHT22;12631;50.860;5.714;2023-01-01T01:29:26;15.60;1.00
24462;DHT22;12631;50.860;5.714;2023-01-01T01:31:53;15.50;1.00
24462;DHT22;12631;50.860;5.714;2023-01-01T01:34:20;15.60;1.00
24462;DHT22;12631;50.860;5.714;2023-01-01T01:36:49;15.60;1.00
24462;DHT22;12631;50.860;5.714;2023-01-01T01:39:18;15.60;1.00
24462;DHT22;12631;50.860;5.714;2023-01-01T01:41:45;15.50;1.00
24462;DHT22;12631;50.860;5.714;2023-01-01T01:47:14;15.50;1.00
24462;DHT22;12631;50.860;5.714;2023-01-01T01:49:44;15.60;1.00
24462;DHT22;12631;50.860;5.714;2023-01-01T01:52:13;15.50;1.00
24462;DHT22;12631;50.860;5.714;2023-01-01T01:54:41;15.60;1.00
24462;DHT22;12631;50.860;5.714;2023-01-01T01:57:10;15.60;1.00
24462;DHT22;12631;50.860;5.714;2023-01-01T01:59:41;15.50;1.00
24462;DHT22;12631;50.860;5.714;2023-01-01T02:02:13;15.50;1.00
24462;DHT22;12631;50.860;5.714;2023-01-01T02:04:42;15.50;1.00
24462;DHT22;12631;50.860;5.714;2023-01-01T02:07:09;15.60;1.00
24462;DHT22;12631;50.860;5.714;2023-01-01T02:09:39;15.50;1.00
24462;DHT22;12631;50.860;5.714;2023-01-01T02:12:06;15.50;1.00
24462;DHT22;12631;50.860;5.714;2023-01-01T02:14:34;15.50;1.00
24462;DHT22;12631;50.860;5.714;2023-01-01T02:17:05;15.50;1.00
24462;DHT22;12631;50.860;5.714;2023-01-01T02:19:43;15.50;1.00
24462;DHT22;12631;50.860;5.714;2023-01-01T02:22:15;15.60;1.00
24462;DHT22;12631;50.860;5.714;2023-01-01T02:24:50;15.60;1.00
24462;DHT22;12631;50.860;5.714;2023-01-01T02:27:29;15.60;1.00
24462;DHT22;12631;50.860;5.714;2023-01-01T02:30:01;15.60;1.00
24462;DHT22;12631;50.860;5.714;2023-01-01T02:32:34;15.50;1.00
24462;DHT22;12631;50.860;5.714;2023-01-01T02:35:05;15.50;1.00
24462;DHT22;12631;50.860;5.714;2023-01-01T02:37:50;15.50;1.00
24462;DHT22;12631;50.860;5.714;2023-01-01T02:40:20;15.50;1.00
24462;DHT22;12631;50.860;5.714;2023-01-01T02:42:48;15.40;1.00
24462;DHT22;12631;50.860;5.714;2023-01-01T02:45:18;15.40;1.00
24462;DHT22;12631;50.860;5.714;2023-01-01T02:47:45;15.40;1.00
24462;DHT22;12631;50.860;5.714;2023-01-01T02:50:14;15.40;1.00
24462;DHT22;12631;50.860;5.714;2023-01-01T02:55:46;15.30;1.00
24462;DHT22;12631;50.860;5.714;2023-01-01T02:58:18;15.30;1.00
24462;DHT22;12631;50.860;5.714;2023-01-01T03:01:11;15.30;1.00
24462;DHT22;12631;50.860;5.714;2023-01-01T03:03:47;15.30;1.00
24462;DHT22;12631;50.860;5.714;2023-01-01T03:06:23;15.30;1.00
24462;DHT22;12631;50.860;5.714;2023-01-01T03:08:58;15.30;1.00
24462;DHT22;12631;50.860;5.714;2023-01-01T03:11:34;15.20;1.00
24462;DHT22;12631;50.860;5.714;2023-01-01T03:14:07;15.20;1.00
24462;DHT22;12631;50.860;5.714;2023-01-01T03:16:43;15.30;1.00
24462;DHT22;12631;50.860;5.714;2023-01-01T03:19:16;15.30;1.00
24462;DHT22;12631;50.860;5.714;2023-01-01T03:21:48;15.20;1.00
24462;DHT22;12631;50.860;5.714;2023-01-01T03:24:20;15.20;1.00
24462;DHT22;12631;50.860;5.714;2023-01-01T03:26:52;15.20;1.00
24462;DHT22;12631;50.860;5.714;2023-01-01T03:29:21;15.30;1.00
24462;DHT22;12631;50.860;5.714;2023-01-01T03:31:53;15.30;1.00
24462;DHT22;12631;50.860;5.714;2023-01-01T03:34:26;15.20;1.00
24462;DHT22;12631;50.860;5.714;2023-01-01T03:36:56;15.30;1.00
24462;DHT22;12631;50.860;5.714;2023-01-01T03:39:26;15.20;1.00
24462;DHT22;12631;50.860;5.714;2023-01-01T03:42:00;15.20;1.00
24462;DHT22;12631;50.860;5.714;2023-01-01T03:44:34;15.20;1.00
24462;DHT22;12631;50.860;5.714;2023-01-01T03:47:04;15.20;1.00
24462;DHT22;12631;50.860;5.714;2023-01-01T03:49:32;15.10;1.00
24462;DHT22;12631;50.860;5.714;2023-01-01T03:52:08;15.10;1.00
24462;DHT22;12631;50.860;5.714;2023-01-01T03:54:44;15.10;1.00
24462;DHT22;12631;50.860;5.714;2023-01-01T03:57:20;15.20;1.00
24462;DHT22;12631;50.860;5.714;2023-01-01T03:59:55;15.30;1.00
24462;DHT22;12631;50.860;5.714;2023-01-01T04:02:29;15.20;1.00
24462;DHT22;12631;50.860;5.714;2023-01-01T04:04:59;15.10;1.00
24462;DHT22;12631;50.860;5.714;2023-01-01T04:07:29;15.10;1.00
24462;DHT22;12631;50.860;5.714;2023-01-01T04:10:00;15.20;1.00
24462;DHT22;12631;50.860;5.714;2023-01-01T04:12:43;15.30;1.00
24462;DHT22;12631;50.860;5.714;2023-01-01T04:15:11;15.20;1.00
24462;DHT22;12631;50.860;5.714;2023-01-01T04:17:40;15.20;1.00
24462;DHT22;12631;50.860;5.714;2023-01-01T04:20:08;15.20;1.00
24462;DHT22;12631;50.860;5.714;2023-01-01T04:22:35;15.30;1.00
24462;DHT22;12631;50.860;5.714;2023-01-01T04:25:03;15.30;1.00
24462;DHT22;12631;50.860;5.714;2023-01-01T04:27:31;15.20;1.00
24462;DHT22;12631;50.860;5.714;2023-01-01T04:29:58;15.20;1.00
24462;DHT22;12631;50.860;5.714;2023-01-01T04:32:25;15.10;1.00
24462;DHT22;12631;50.860;5.714;2023-01-01T04:34:54;15.10;1.00
24462;DHT22;12631;50.860;5.714;2023-01-01T04:37:21;15.20;1.00
24462;DHT22;12631;50.860;5.714;2023-01-01T04:39:48;15.10;1.00
24462;DHT22;12631;50.860;5.714;2023-01-01T04:42:15;15.10;1.00
24462;DHT22;12631;50.860;5.714;2023-01-01T04:44:43;15.10;1.00
24462;DHT22;12631;50.860;5.714;2023-01-01T04:47:10;15.10;1.00
24462;DHT22;12631;50.860;5.714;2023-01-01T04:49:37;15.10;1.00
24462;DHT22;12631;50.860;5.714;2023-01-01T04:52:06;15.10;1.00
24462;DHT22;12631;50.860;5.714;2023-01-01T04:54:33;15.00;1.00
24462;DHT22;12631;50.860;5.714;2023-01-01T04:57:00;15.10;1.00
24462;DHT22;12631;50.860;5.714;2023-01-01T04:59:28;15.00;1.00
24462;DHT22;12631;50.860;5.714;2023-01-01T05:01:56;15.10;1.00
24462;DHT22;12631;50.860;5.714;2023-01-01T05:04:23;15.10;1.00
24462;DHT22;12631;50.860;5.714;2023-01-01T05:06:50;15.00;1.00
24462;DHT22;12631;50.860;5.714;2023-01-01T05:09:19;15.00;1.00
24462;DHT22;12631;50.860;5.714;2023-01-01T05:11:46;15.10;1.00
24462;DHT22;12631;50.860;5.714;2023-01-01T05:14:13;15.00;1.00
24462;DHT22;12631;50.860;5.714;2023-01-01T05:16:40;14.90;1.00
24462;DHT22;12631;50.860;5.714;2023-01-01T05:19:08;14.90;1.00
24462;DHT22;12631;50.860;5.714;2023-01-01T05:21:37;15.00;1.00
24462;DHT22;12631;50.860;5.714;2023-01-01T05:24:07;14.90;1.00
24462;DHT22;12631;50.860;5.714;2023-01-01T05:26:37;14.90;1.00
24462;DHT22;12631;50.860;5.714;2023-01-01T05:29:04;14.80;1.00
24462;DHT22;12631;50.860;5.714;2023-01-01T05:31:33;14.80;1.00
24462;DHT22;12631;50.860;5.714;2023-01-01T05:34:02;14.90;1.00
24462;DHT22;12631;50.860;5.714;2023-01-01T05:36:31;14.80;1.00
24462;DHT22;12631;50.860;5.714;2023-01-01T05:38:58;14.80;1.00
24462;DHT22;12631;50.860;5.714;2023-01-01T05:41:26;14.80;1.00
24462;DHT22;12631;50.860;5.714;2023-01-01T05:43:57;14.80;1.00
24462;DHT22;12631;50.860;5.714;2023-01-01T05:46:24;14.90;1.00
24462;DHT22;12631;50.860;5.714;2023-01-01T05:48:52;14.90;1.00
24462;DHT22;12631;50.860;5.714;2023-01-01T05:51:23;14.80;1.00
24462;DHT22;12631;50.860;5.714;2023-01-01T05:53:50;14.80;1.00
24462;DHT22;12631;50.860;5.714;2023-01-01T05:56:18;14.80;1.00
24462;DHT22;12631;50.860;5.714;2023-01-01T05:58:45;14.80;1.00
24462;DHT22;12631;50.860;5.714;2023-01-01T06:01:15;14.70;1.00
24462;DHT22;12631;50.860;5.714;2023-01-01T06:03:43;14.70;1.00
24462;DHT22;12631;50.860;5.714;2023-01-01T06:06:12;14.70;1.00
24462;DHT22;12631;50.860;5.714;2023-01-01T06:08:40;14.80;1.00
24462;DHT22;12631;50.860;5.714;2023-01-01T06:11:09;14.70;1.00
24462;DHT22;12631;50.860;5.714;2023-01-01T06:13:37;14.70;1.00
24462;DHT22;12631;50.860;5.714;2023-01-01T06:16:05;14.60;1.00
24462;DHT22;12631;50.860;5.714;2023-01-01T06:18:34;14.60;1.00
24462;DHT22;12631;50.860;5.714;2023-01-01T06:21:06;14.60;1.00
24462;DHT22;12631;50.860;5.714;2023-01-01T06:23:34;14.60;1.00
24462;DHT22;12631;50.860;5.714;2023-01-01T06:26:06;14.60;1.00
24462;DHT22;12631;50.860;5.714;2023-01-01T06:28:33;14.60;1.00
24462;DHT22;12631;50.860;5.714;2023-01-01T06:31:00;14.50;1.00
24462;DHT22;12631;50.860;5.714;2023-01-01T06:33:27;14.40;1.00
24462;DHT22;12631;50.860;5.714;2023-01-01T06:35:56;14.40;1.00
24462;DHT22;12631;50.860;5.714;2023-01-01T06:38:24;14.40;1.00
24462;DHT22;12631;50.860;5.714;2023-01-01T06:40:55;14.40;1.00
24462;DHT22;12631;50.860;5.714;2023-01-01T06:43:22;14.40;1.00
24462;DHT22;12631;50.860;5.714;2023-01-01T06:45:59;14.40;1.00
24462;DHT22;12631;50.860;5.714;2023-01-01T06:48:27;14.30;1.00
24462;DHT22;12631;50.860;5.714;2023-01-01T06:50:56;14.30;1.00
24462;DHT22;12631;50.860;5.714;2023-01-01T06:53:24;14.30;1.00
24462;DHT22;12631;50.860;5.714;2023-01-01T06:55:51;14.30;1.00
24462;DHT22;12631;50.860;5.714;2023-01-01T06:58:19;14.20;1.00
24462;DHT22;12631;50.860;5.714;2023-01-01T07:00:46;14.10;1.00
24462;DHT22;12631;50.860;5.714;2023-01-01T07:03:13;14.00;1.00
24462;DHT22;12631;50.860;5.714;2023-01-01T07:05:40;13.90;1.00
24462;DHT22;12631;50.860;5.714;2023-01-01T07:08:09;13.80;1.00
24462;DHT22;12631;50.860;5.714;2023-01-01T07:10:36;13.70;57.90
24462;DHT22;12631;50.860;5.714;2023-01-01T07:13:03;13.60;99.90
24462;DHT22;12631;50.860;5.714;2023-01-01T07:15:30;13.60;99.90
24462;DHT22;12631;50.860;5.714;2023-01-01T07:17:57;13.60;99.90
24462;DHT22;12631;50.860;5.714;2023-01-01T07:20:24;13.60;99.90
24462;DHT22;12631;50.860;5.714;2023-01-01T07:22:51;13.70;74.30
24462;DHT22;12631;50.860;5.714;2023-01-01T07:25:20;13.70;74.90
24462;DHT22;12631;50.860;5.714;2023-01-01T07:27:47;13.80;40.80
24462;DHT22;12631;50.860;5.714;2023-01-01T07:30:14;13.80;46.60
24462;DHT22;12631;50.860;5.714;2023-01-01T07:32:41;13.70;61.70
24462;DHT22;12631;50.860;5.714;2023-01-01T07:35:09;13.80;33.90
24462;DHT22;12631;50.860;5.714;2023-01-01T07:37:36;13.80;25.50
24462;DHT22;12631;50.860;5.714;2023-01-01T07:40:04;13.80;30.60
24462;DHT22;12631;50.860;5.714;2023-01-01T07:42:33;13.80;26.80
24462;DHT22;12631;50.860;5.714;2023-01-01T07:45:00;13.80;15.10
24462;DHT22;12631;50.860;5.714;2023-01-01T07:47:27;13.80;21.30
24462;DHT22;12631;50.860;5.714;2023-01-01T07:49:54;13.80;7.90
24462;DHT22;12631;50.860;5.714;2023-01-01T07:52:21;13.80;2.10
24462;DHT22;12631;50.860;5.714;2023-01-01T07:54:48;13.80;14.20
24462;DHT22;12631;50.860;5.714;2023-01-01T07:57:16;13.70;25.90
24462;DHT22;12631;50.860;5.714;2023-01-01T07:59:44;13.80;13.60
24462;DHT22;12631;50.860;5.714;2023-01-01T08:02:12;13.80;6.80
24462;DHT22;12631;50.860;5.714;2023-01-01T08:04:39;13.80;15.20
24462;DHT22;12631;50.860;5.714;2023-01-01T08:07:06;13.80;1.00
24462;DHT22;12631;50.860;5.714;2023-01-01T08:09:33;13.80;6.40
24462;DHT22;12631;50.860;5.714;2023-01-01T08:12:00;13.80;1.60
24462;DHT22;12631;50.860;5.714;2023-01-01T08:14:27;13.80;4.30
24462;DHT22;12631;50.860;5.714;2023-01-01T08:16:56;13.80;3.70
24462;DHT22;12631;50.860;5.714;2023-01-01T08:19:23;13.80;9.20
24462;DHT22;12631;50.860;5.714;2023-01-01T08:21:50;13.70;13.70
24462;DHT22;12631;50.860;5.714;2023-01-01T08:24:17;13.70;12.60
24462;DHT22;12631;50.860;5.714;2023-01-01T08:26:48;13.70;14.60
24462;DHT22;12631;50.860;5.714;2023-01-01T08:29:16;13.70;20.00
24462;DHT22;12631;50.860;5.714;2023-01-01T08:31:43;13.70;19.00
24462;DHT22;12631;50.860;5.714;2023-01-01T08:34:12;13.70;23.90
24462;DHT22;12631;50.860;5.714;2023-01-01T08:36:39;13.70;27.30
24462;DHT22;12631;50.860;5.714;2023-01-01T08:39:06;13.70;26.20
24462;DHT22;12631;50.860;5.714;2023-01-01T08:41:34;13.80;25.80
24462;DHT22;12631;50.860;5.714;2023-01-01T08:44:01;13.80;21.80
24462;DHT22;12631;50.860;5.714;2023-01-01T08:46:28;13.70;29.80
24462;DHT22;12631;50.860;5.714;2023-01-01T08:48:56;13.70;22.00
24462;DHT22;12631;50.860;5.714;2023-01-01T08:51:24;13.80;16.50
24462;DHT22;12631;50.860;5.714;2023-01-01T08:53:51;13.80;27.10
24462;DHT22;12631;50.860;5.714;2023-01-01T08:56:19;13.80;30.00
24462;DHT22;12631;50.860;5.714;2023-01-01T08:58:46;13.70;39.50
24462;DHT22;12631;50.860;5.714;2023-01-01T09:01:13;13.80;32.20
24462;DHT22;12631;50.860;5.714;2023-01-01T09:03:41;13.80;25.00
24462;DHT22;12631;50.860;5.714;2023-01-01T09:06:08;13.90;14.40
24462;DHT22;12631;50.860;5.714;2023-01-01T09:08:37;13.80;17.90
24462;DHT22;12631;50.860;5.714;2023-01-01T09:11:04;13.80;17.70
24462;DHT22;12631;50.860;5.714;2023-01-01T09:13:31;13.90;12.90
24462;DHT22;12631;50.860;5.714;2023-01-01T09:15:59;13.80;15.20
24462;DHT22;12631;50.860;5.714;2023-01-01T09:18:26;13.80;15.40
24462;DHT22;12631;50.860;5.714;2023-01-01T09:20:53;13.80;13.20
24462;DHT22;12631;50.860;5.714;2023-01-01T09:23:20;13.80;11.50
24462;DHT22;12631;50.860;5.714;2023-01-01T09:25:49;13.90;5.20
24462;DHT22;12631;50.860;5.714;2023-01-01T09:28:16;13.90;1.00
24462;DHT22;12631;50.860;5.714;2023-01-01T09:30:43;13.90;1.00
24462;DHT22;12631;50.860;5.714;2023-01-01T09:33:11;13.90;1.00
24462;DHT22;12631;50.860;5.714;2023-01-01T09:35:38;13.80;1.00
24462;DHT22;12631;50.860;5.714;2023-01-01T09:38:08;13.90;1.00
24462;DHT22;12631;50.860;5.714;2023-01-01T09:40:44;13.90;1.00
24462;DHT22;12631;50.860;5.714;2023-01-01T09:43:24;13.90;1.00
24462;DHT22;12631;50.860;5.714;2023-01-01T09:45:56;14.00;1.00
24462;DHT22;12631;50.860;5.714;2023-01-01T09:48:25;14.00;1.00
24462;DHT22;12631;50.860;5.714;2023-01-01T09:50:54;14.00;1.00
24462;DHT22;12631;50.860;5.714;2023-01-01T09:53:31;13.90;1.00
24462;DHT22;12631;50.860;5.714;2023-01-01T09:56:01;14.00;1.00
24462;DHT22;12631;50.860;5.714;2023-01-01T09:58:33;14.00;1.00
24462;DHT22;12631;50.860;5.714;2023-01-01T10:01:08;14.00;1.00
24462;DHT22;12631;50.860;5.714;2023-01-01T10:03:43;14.00;1.00
24462;DHT22;12631;50.860;5.714;2023-01-01T10:06:19;14.00;1.00
24462;DHT22;12631;50.860;5.714;2023-01-01T10:09:06;14.00;1.00
24462;DHT22;12631;50.860;5.714;2023-01-01T10:11:43;14.00;1.00
24462;DHT22;12631;50.860;5.714;2023-01-01T10:14:19;14.00;1.00
24462;DHT22;12631;50.860;5.714;2023-01-01T10:16:53;14.00;1.00
24462;DHT22;12631;50.860;5.714;2023-01-01T10:19:26;14.10;1.00
24462;DHT22;12631;50.860;5.714;2023-01-01T10:21:59;14.10;1.00
24462;DHT22;12631;50.860;5.714;2023-01-01T10:24:36;14.10;1.00
24462;DHT22;12631;50.860;5.714;2023-01-01T10:27:06;14.10;1.00
24462;DHT22;12631;50.860;5.714;2023-01-01T10:29:40;14.10;1.00
24462;DHT22;12631;50.860;5.714;2023-01-01T10:32:18;14.10;1.00
24462;DHT22;12631;50.860;5.714;2023-01-01T10:34:48;14.20;1.00
24462;DHT22;12631;50.860;5.714;2023-01-01T10:37:16;14.20;1.00
24462;DHT22;12631;50.860;5.714;2023-01-01T10:39:45;14.20;1.00
24462;DHT22;12631;50.860;5.714;2023-01-01T10:42:14;14.20;1.00
24462;DHT22;12631;50.860;5.714;2023-01-01T10:44:43;14.20;1.00
24462;DHT22;12631;50.860;5.714;2023-01-01T10:47:31;14.20;1.00
24462;DHT22;12631;50.860;5.714;2023-01-01T10:50:00;14.20;1.00
24462;DHT22;12631;50.860;5.714;2023-01-01T10:52:30;14.30;1.00
24462;DHT22;12631;50.860;5.714;2023-01-01T10:55:00;14.20;1.00
24462;DHT22;12631;50.860;5.714;2023-01-01T10:57:33;14.20;1.00
24462;DHT22;12631;50.860;5.714;2023-01-01T11:00:20;14.20;1.00
24462;DHT22;12631;50.860;5.714;2023-01-01T11:03:10;14.20;1.00
24462;DHT22;12631;50.860;5.714;2023-01-01T11:05:38;14.30;1.00
24462;DHT22;12631;50.860;5.714;2023-01-01T11:08:15;14.30;1.00
24462;DHT22;12631;50.860;5.714;2023-01-01T11:10:49;14.20;1.00
24462;DHT22;12631;50.860;5.714;2023-01-01T11:13:18;14.20;1.00
24462;DHT22;12631;50.860;5.714;2023-01-01T11:15:47;14.20;1.00
24462;DHT22;12631;50.860;5.714;2023-01-01T11:18:20;14.20;1.00
24462;DHT22;12631;50.860;5.714;2023-01-01T11:20:50;14.30;1.00
24462;DHT22;12631;50.860;5.714;2023-01-01T11:23:27;14.30;1.00
24462;DHT22;12631;50.860;5.714;2023-01-01T11:25:57;14.20;1.00
24462;DHT22;12631;50.860;5.714;2023-01-01T11:28:25;14.30;1.00
24462;DHT22;12631;50.860;5.714;2023-01-01T11:31:18;14.40;1.00
24462;DHT22;12631;50.860;5.714;2023-01-01T11:33:48;14.40;1.00
24462;DHT22;12631;50.860;5.714;2023-01-01T11:36:22;14.50;1.00
24462;DHT22;12631;50.860;5.714;2023-01-01T11:39:06;14.50;1.00
24462;DHT22;12631;50.860;5.714;2023-01-01T11:41:41;14.50;1.00
24462;DHT22;12631;50.860;5.714;2023-01-01T11:44:12;14.50;1.00
24462;DHT22;12631;50.860;5.714;2023-01-01T11:46:45;14.50;1.00
24462;DHT22;12631;50.860;5.714;2023-01-01T11:49:13;14.50;1.00
24462;DHT22;12631;50.860;5.714;2023-01-01T11:51:41;14.50;1.00
24462;DHT22;12631;50.860;5.714;2023-01-01T11:54:11;14.40;1.00
24462;DHT22;12631;50.860;5.714;2023-01-01T11:56:47;14.40;1.00
24462;DHT22;12631;50.860;5.714;2023-01-01T11:59:17;14.40;1.00
24462;DHT22;12631;50.860;5.714;2023-01-01T12:01:49;14.30;1.00
24462;DHT22;12631;50.860;5.714;2023-01-01T12:04:20;14.30;1.00
24462;DHT22;12631;50.860;5.714;2023-01-01T12:06:54;14.30;1.00
24462;DHT22;12631;50.860;5.714;2023-01-01T12:09:31;14.30;1.00
24462;DHT22;12631;50.860;5.714;2023-01-01T12:12:04;14.20;1.00
24462;DHT22;12631;50.860;5.714;2023-01-01T12:14:38;14.20;1.00
24462;DHT22;12631;50.860;5.714;2023-01-01T12:17:13;14.20;1.00
24462;DHT22;12631;50.860;5.714;2023-01-01T12:19:49;14.20;1.00
24462;DHT22;12631;50.860;5.714;2023-01-01T12:22:19;14.30;1.00
24462;DHT22;12631;50.860;5.714;2023-01-01T12:24:47;14.30;1.00
24462;DHT22;12631;50.860;5.714;2023-01-01T12:27:22;14.20;1.00
24462;DHT22;12631;50.860;5.714;2023-01-01T12:30:13;14.20;1.00
24462;DHT22;12631;50.860;5.714;2023-01-01T12:32:59;14.20;1.00
24462;DHT22;12631;50.860;5.714;2023-01-01T12:35:40;14.20;1.00
24462;DHT22;12631;50.860;5.714;2023-01-01T12:38:17;14.20;1.00
24462;DHT22;12631;50.860;5.714;2023-01-01T12:40:53;14.20;1.00
24462;DHT22;12631;50.860;5.714;2023-01-01T12:43:28;14.20;1.00
24462;DHT22;12631;50.860;5.714;2023-01-01T12:46:23;14.20;1.00
24462;DHT22;12631;50.860;5.714;2023-01-01T12:49:22;14.10;1.00
24462;DHT22;12631;50.860;5.714;2023-01-01T12:52:00;14.10;1.00
24462;DHT22;12631;50.860;5.714;2023-01-01T12:54:51;14.10;1.00
24462;DHT22;12631;50.860;5.714;2023-01-01T12:57:26;14.10;1.00
24462;DHT22;12631;50.860;5.714;2023-01-01T12:59:56;14.10;1.00
24462;DHT22;12631;50.860;5.714;2023-01-01T13:02:25;14.20;1.00
24462;DHT22;12631;50.860;5.714;2023-01-01T13:04:59;14.20;1.00
24462;DHT22;12631;50.860;5.714;2023-01-01T13:07:30;14.10;1.00
24462;DHT22;12631;50.860;5.714;2023-01-01T13:10:07;14.10;1.00
24462;DHT22;12631;50.860;5.714;2023-01-01T13:12:35;14.20;1.00
24462;DHT22;12631;50.860;5.714;2023-01-01T13:15:34;14.20;1.00
24462;DHT22;12631;50.860;5.714;2023-01-01T13:18:22;14.20;1.00
24462;DHT22;12631;50.860;5.714;2023-01-01T13:21:16;14.20;1.00
24462;DHT22;12631;50.860;5.714;2023-01-01T13:23:51;14.20;1.00
24462;DHT22;12631;50.860;5.714;2023-01-01T13:26:39;14.20;1.00
24462;DHT22;12631;50.860;5.714;2023-01-01T13:29:34;14.10;1.00
24462;DHT22;12631;50.860;5.714;2023-01-01T13:32:09;14.10;1.00
24462;DHT22;12631;50.860;5.714;2023-01-01T13:34:58;14.10;1.00
24462;DHT22;12631;50.860;5.714;2023-01-01T13:37:54;14.10;1.00
24462;DHT22;12631;50.860;5.714;2023-01-01T13:43:25;14.00;1.00
24462;DHT22;12631;50.860;5.714;2023-01-01T13:45:53;14.00;1.00
24462;DHT22;12631;50.860;5.714;2023-01-01T13:48:39;14.10;1.00
24462;DHT22;12631;50.860;5.714;2023-01-01T13:51:28;14.10;1.00
24462;DHT22;12631;50.860;5.714;2023-01-01T13:56:57;14.10;1.00
24462;DHT22;12631;50.860;5.714;2023-01-01T13:59:47;14.10;1.00
24462;DHT22;12631;50.860;5.714;2023-01-01T14:02:22;14.10;1.00
24462;DHT22;12631;50.860;5.714;2023-01-01T14:04:51;14.10;1.00
24462;DHT22;12631;50.860;5.714;2023-01-01T14:07:29;14.10;1.00
24462;DHT22;12631;50.860;5.714;2023-01-01T14:10:18;14.00;1.00
24462;DHT22;12631;50.860;5.714;2023-01-01T14:12:46;14.00;1.00
24462;DHT22;12631;50.860;5.714;2023-01-01T14:15:15;14.00;1.00
24462;DHT22;12631;50.860;5.714;2023-01-01T14:17:43;14.00;1.00
24462;DHT22;12631;50.860;5.714;2023-01-01T14:20:16;14.00;1.00
24462;DHT22;12631;50.860;5.714;2023-01-01T14:22:44;14.00;1.00
24462;DHT22;12631;50.860;5.714;2023-01-01T14:25:19;14.00;1.00
24462;DHT22;12631;50.860;5.714;2023-01-01T14:27:48;14.00;1.00
24462;DHT22;12631;50.860;5.714;2023-01-01T14:30:17;14.00;1.00
24462;DHT22;12631;50.860;5.714;2023-01-01T14:32:45;14.00;1.00
24462;DHT22;12631;50.860;5.714;2023-01-01T14:35:15;14.00;1.00
24462;DHT22;12631;50.860;5.714;2023-01-01T14:37:42;14.00;1.00
24462;DHT22;12631;50.860;5.714;2023-01-01T14:40:19;14.00;1.00
24462;DHT22;12631;50.860;5.714;2023-01-01T14:42:57;13.90;1.00
24462;DHT22;12631;50.860;5.714;2023-01-01T14:45:26;13.80;1.00
24462;DHT22;12631;50.860;5.714;2023-01-01T14:47:54;13.70;1.00
24462;DHT22;12631;50.860;5.714;2023-01-01T14:50:25;13.50;1.00
24462;DHT22;12631;50.860;5.714;2023-01-01T14:53:00;13.40;52.80
24462;DHT22;12631;50.860;5.714;2023-01-01T14:55:34;13.30;99.70
24462;DHT22;12631;50.860;5.714;2023-01-01T14:58:05;13.20;99.90
24462;DHT22;12631;50.860;5.714;2023-01-01T15:00:33;13.20;99.90
24462;DHT22;12631;50.860;5.714;2023-01-01T15:03:12;13.00;99.90
24462;DHT22;12631;50.860;5.714;2023-01-01T15:05:40;13.00;99.90
24462;DHT22;12631;50.860;5.714;2023-01-01T15:08:18;13.00;99.90
24462;DHT22;12631;50.860;5.714;2023-01-01T15:10:48;12.90;99.90
24462;DHT22;12631;50.860;5.714;2023-01-01T15:13:18;12.80;1.00
24462;DHT22;12631;50.860;5.714;2023-01-01T15:15:47;12.80;1.00
24462;DHT22;12631;50.860;5.714;2023-01-01T15:18:35;12.70;1.00
24462;DHT22;12631;50.860;5.714;2023-01-01T15:21:04;12.70;78.30
24462;DHT22;12631;50.860;5.714;2023-01-01T15:23:34;12.60;99.90
24462;DHT22;12631;50.860;5.714;2023-01-01T15:26:06;12.60;1.00
24462;DHT22;12631;50.860;5.714;2023-01-01T15:28:34;12.50;1.00
24462;DHT22;12631;50.860;5.714;2023-01-01T15:31:03;12.50;99.90
24462;DHT22;12631;50.860;5.714;2023-01-01T15:33:30;12.40;1.00
24462;DHT22;12631;50.860;5.714;2023-01-01T15:35:57;12.30;1.00
24462;DHT22;12631;50.860;5.714;2023-01-01T15:38:29;12.30;1.00
24462;DHT22;12631;50.860;5.714;2023-01-01T15:40:59;12.30;1.00
24462;DHT22;12631;50.860;5.714;2023-01-01T15:43:29;12.20;99.90
24462;DHT22;12631;50.860;5.714;2023-01-01T15:45:58;12.20;99.90
24462;DHT22;12631;50.860;5.714;2023-01-01T15:48:33;12.10;99.90
24462;DHT22;12631;50.860;5.714;2023-01-01T15:51:13;12.00;99.90
24462;DHT22;12631;50.860;5.714;2023-01-01T15:53:52;11.90;99.90
24462;DHT22;12631;50.860;5.714;2023-01-01T15:56:22;11.90;99.90
24462;DHT22;12631;50.860;5.714;2023-01-01T15:58:55;11.90;99.90
24462;DHT22;12631;50.860;5.714;2023-01-01T16:01:26;11.90;99.90
24462;DHT22;12631;50.860;5.714;2023-01-01T16:04:00;11.90;99.90
24462;DHT22;12631;50.860;5.714;2023-01-01T16:06:29;11.90;99.90
24462;DHT22;12631;50.860;5.714;2023-01-01T16:08:56;11.90;99.90
24462;DHT22;12631;50.860;5.714;2023-01-01T16:11:24;11.90;99.90
24462;DHT22;12631;50.860;5.714;2023-01-01T16:13:52;11.80;99.90
24462;DHT22;12631;50.860;5.714;2023-01-01T16:16:25;11.80;99.90
24462;DHT22;12631;50.860;5.714;2023-01-01T16:18:54;11.80;99.90